createdAt,value
2023-01-31T00:01:36.370Z,97524.91
2023-01-31T00:04:08.537Z,97548.22
2023-01-31T00:06:38.883Z,97536.22
2023-01-31T00:09:06.691Z,97534.53
2023-01-31T00:11:33.793Z,97561.13
2023-01-31T00:14:03.234Z,97543.06
2023-01-31T00:16:30.666Z,97531.69
2023-01-31T00:18:57.640Z,97543.91
2023-01-31T00:21:27.459Z,97552.44
2023-01-31T00:23:55.846Z,97541.25
2023-01-31T00:26:25.342Z,97526.63
2023-01-31T00:28:55.215Z,97531.00
2023-01-31T00:31:24.220Z,97547.34
2023-01-31T00:33:53.019Z,97538.75
2023-01-31T00:36:39.017Z,97544.78
2023-01-31T00:39:10.818Z,97546.47
2023-01-31T00:41:39.493Z,97542.16
2023-01-31T00:44:07.190Z,97548.00
2023-01-31T00:46:34.651Z,97510.94
2023-01-31T00:49:05.232Z,97525.56
2023-01-31T00:51:32.703Z,97508.38
2023-01-31T00:53:59.713Z,97521.47
2023-01-31T00:56:26.964Z,97525.69
2023-01-31T00:58:55.818Z,97531.72
2023-01-31T01:01:26.560Z,97548.25
2023-01-31T01:03:54.630Z,97558.59
2023-01-31T01:06:22.633Z,97536.88
2023-01-31T01:08:51.612Z,97563.78
2023-01-31T01:11:30.412Z,97567.25
2023-01-31T01:13:59.300Z,97567.19
2023-01-31T01:16:33.217Z,97540.94
2023-01-31T01:19:03.168Z,97572.31
2023-01-31T01:21:38.200Z,97594.72
2023-01-31T01:24:07.220Z,97583.56
2023-01-31T01:26:35.225Z,97581.84
2023-01-31T01:29:04.810Z,97584.41
2023-01-31T01:31:32.470Z,97565.22
2023-01-31T01:34:02.509Z,97588.69
2023-01-31T01:36:32.536Z,97577.41
2023-01-31T01:38:59.948Z,97529.91
2023-01-31T01:41:27.561Z,97580.16
2023-01-31T01:43:57.263Z,97545.38
2023-01-31T01:46:32.960Z,97571.53
2023-01-31T01:49:17.335Z,97547.28
2023-01-31T01:51:48.504Z,97556.84
2023-01-31T01:54:21.421Z,97573.28
2023-01-31T01:56:51.685Z,97587.94
2023-01-31T01:59:25.164Z,97587.94
2023-01-31T02:01:58.519Z,97590.56
2023-01-31T02:04:34.432Z,97576.00
2023-01-31T02:07:02.936Z,97556.13
2023-01-31T02:09:34.495Z,97582.88
2023-01-31T02:12:05.566Z,97555.38
2023-01-31T02:14:32.726Z,97563.03
2023-01-31T02:17:20.636Z,97566.44
2023-01-31T02:20:09.108Z,97582.94
2023-01-31T02:23:24.903Z,97572.50
2023-01-31T02:26:42.859Z,97550.06
2023-01-31T02:29:34.132Z,97578.66
2023-01-31T02:32:13.465Z,97567.53
2023-01-31T02:35:02.432Z,97564.09
2023-01-31T02:37:49.437Z,97564.94
2023-01-31T02:40:16.366Z,97558.88
2023-01-31T02:43:01.398Z,97553.63
2023-01-31T02:45:51.357Z,97551.78
2023-01-31T02:48:55.218Z,97560.59
2023-01-31T02:51:35.413Z,97561.53
2023-01-31T02:54:12.469Z,97562.34
2023-01-31T02:56:43.681Z,97528.53
2023-01-31T02:59:20.740Z,97555.44
2023-01-31T03:01:58.672Z,97555.56
2023-01-31T03:04:31.562Z,97521.59
2023-01-31T03:07:26.987Z,97547.72
2023-01-31T03:10:09.368Z,97553.75
2023-01-31T03:12:47.500Z,97545.13
2023-01-31T03:15:52.753Z,97541.69
2023-01-31T03:18:43.324Z,97555.56
2023-01-31T03:21:17.145Z,97551.22
2023-01-31T03:23:48.622Z,97553.81
2023-01-31T03:36:31.812Z,97573.66
2023-01-31T03:39:39.068Z,97547.63
2023-01-31T03:42:16.045Z,97574.34
2023-01-31T03:44:59.811Z,97583.91
2023-01-31T03:47:36.075Z,97574.34
2023-01-31T03:50:09.002Z,97583.94
2023-01-31T03:52:41.004Z,97576.06
2023-01-31T03:55:16.990Z,97573.41
2023-01-31T03:57:49.458Z,97600.09
2023-01-31T04:00:21.483Z,97593.25
2023-01-31T04:03:14.948Z,97603.50
2023-01-31T04:05:42.413Z,97553.28
2023-01-31T04:08:09.955Z,97599.13
2023-01-31T04:10:38.863Z,97598.28
2023-01-31T04:13:06.012Z,97590.38
2023-01-31T04:15:33.503Z,97578.19
2023-01-31T04:18:00.432Z,97593.97
2023-01-31T04:20:27.506Z,97606.81
2023-01-31T04:22:54.444Z,97594.78
2023-01-31T04:25:21.784Z,97612.94
2023-01-31T04:27:49.679Z,97562.69
2023-01-31T04:30:16.947Z,97568.66
2023-01-31T04:32:44.129Z,97606.03
2023-01-31T04:35:11.489Z,97617.25
2023-01-31T04:37:38.522Z,97601.47
2023-01-31T04:40:06.202Z,97614.44
2023-01-31T04:42:33.351Z,97621.50
2023-01-31T04:45:00.555Z,97637.88
2023-01-31T04:47:27.624Z,97636.16
2023-01-31T04:49:54.733Z,97632.75
2023-01-31T04:52:21.790Z,97643.03
2023-01-31T04:54:48.834Z,97618.75
2023-01-31T04:57:15.926Z,97615.47
2023-01-31T04:59:43.077Z,97630.00
2023-01-31T05:02:10.153Z,97627.44
2023-01-31T05:04:37.275Z,97620.63
2023-01-31T05:07:04.327Z,97642.31
2023-01-31T05:09:31.565Z,97643.13
2023-01-31T05:11:58.666Z,97638.84
2023-01-31T05:14:25.941Z,97631.19
2023-01-31T05:16:53.142Z,97645.81
2023-01-31T05:19:20.239Z,97646.63
2023-01-31T05:21:59.161Z,97646.63
2023-01-31T05:24:31.542Z,97623.16
2023-01-31T05:27:01.613Z,97596.31
2023-01-31T05:29:30.900Z,97646.56
2023-01-31T05:32:00.387Z,97638.09
2023-01-31T05:34:31.213Z,97651.03
2023-01-31T05:36:59.083Z,97626.75
2023-01-31T05:39:26.165Z,97638.13
2023-01-31T05:41:53.726Z,97639.63
2023-01-31T05:44:21.718Z,97651.91
2023-01-31T05:46:49.291Z,97599.75
2023-01-31T05:49:16.739Z,97651.06
2023-01-31T05:51:43.822Z,97635.53
2023-01-31T05:54:12.414Z,97655.41
2023-01-31T05:56:39.912Z,97617.25
2023-01-31T05:59:07.060Z,97648.41
2023-01-31T06:01:34.098Z,97658.75
2023-01-31T06:04:01.133Z,97676.91
2023-01-31T06:06:28.165Z,97667.44
2023-01-31T06:08:55.190Z,97670.88
2023-01-31T06:11:22.316Z,97665.78
2023-01-31T06:13:49.612Z,97676.94
2023-01-31T06:16:16.756Z,97667.38
2023-01-31T06:18:44.356Z,97677.81
2023-01-31T06:21:12.291Z,97677.81
2023-01-31T06:23:39.454Z,97679.63
2023-01-31T06:26:06.495Z,97678.72
2023-01-31T06:28:33.591Z,97684.78
2023-01-31T06:31:07.087Z,97669.22
2023-01-31T06:33:45.460Z,97670.16
2023-01-31T06:36:13.890Z,97646.78
2023-01-31T06:38:41.206Z,97676.16
2023-01-31T06:41:08.327Z,97676.19
2023-01-31T06:43:35.378Z,97690.09
2023-01-31T06:46:02.455Z,97691.75
2023-01-31T06:48:29.522Z,97704.72
2023-01-31T06:50:56.817Z,97680.44
2023-01-31T06:53:23.900Z,97695.19
2023-01-31T06:55:51.019Z,97701.38
2023-01-31T06:58:20.694Z,97684.84
2023-01-31T07:00:48.190Z,97707.34
2023-01-31T07:03:15.322Z,97707.34
2023-01-31T07:05:42.935Z,97707.28
2023-01-31T07:08:10.195Z,97721.22
2023-01-31T07:10:37.862Z,97736.78
2023-01-31T07:13:04.891Z,97718.66
2023-01-31T07:15:32.485Z,97721.22
2023-01-31T07:17:59.933Z,97712.66
2023-01-31T07:20:27.285Z,97731.72
2023-01-31T07:22:58.700Z,97731.75
2023-01-31T07:25:26.964Z,97719.44
2023-01-31T07:27:54.156Z,97727.31
2023-01-31T07:30:21.248Z,97722.78
2023-01-31T07:32:48.380Z,97721.94
2023-01-31T07:35:15.699Z,97728.94
2023-01-31T07:37:43.693Z,97713.47
2023-01-31T07:40:13.741Z,97737.88
2023-01-31T07:42:41.364Z,97748.22
2023-01-31T07:45:22.813Z,97740.34
2023-01-31T07:47:51.363Z,97724.72
2023-01-31T07:50:19.123Z,97752.53
2023-01-31T07:52:46.388Z,97707.50
2023-01-31T07:55:13.476Z,97762.91
2023-01-31T07:57:40.636Z,97762.97
2023-01-31T08:00:28.677Z,97741.28
2023-01-31T08:03:14.098Z,97780.25
2023-01-31T08:05:41.204Z,97775.97
2023-01-31T08:08:10.929Z,97766.31
2023-01-31T08:10:38.232Z,97801.75
2023-01-31T08:13:06.565Z,97766.41
2023-01-31T08:15:35.066Z,97781.25
2023-01-31T08:18:04.452Z,97795.94
2023-01-31T08:20:33.200Z,97789.16
2023-01-31T08:23:00.418Z,97795.97
2023-01-31T08:25:32.207Z,97780.53
2023-01-31T08:28:00.499Z,97797.78
2023-01-31T08:30:29.613Z,97774.53
2023-01-31T08:32:57.130Z,97776.31
2023-01-31T08:35:26.552Z,97775.28
2023-01-31T08:38:00.884Z,97787.63
2023-01-31T08:40:33.977Z,97785.19
2023-01-31T08:43:01.358Z,97792.06
2023-01-31T08:45:30.459Z,97784.19
2023-01-31T08:47:59.375Z,97765.25
2023-01-31T08:50:28.337Z,97793.06
2023-01-31T08:52:57.325Z,97800.78
2023-01-31T08:55:25.399Z,97784.47
2023-01-31T08:57:59.656Z,97784.38
2023-01-31T09:00:27.913Z,97810.38
2023-01-31T09:02:56.857Z,97783.38
2023-01-31T09:05:25.834Z,97817.25
2023-01-31T09:07:53.476Z,97780.75
2023-01-31T09:10:22.065Z,97814.66
2023-01-31T09:12:49.111Z,97804.19
2023-01-31T09:15:16.320Z,97801.84
2023-01-31T09:17:44.481Z,97794.00
2023-01-31T09:20:11.928Z,97732.47
2023-01-31T09:22:39.041Z,97783.00
2023-01-31T09:25:06.724Z,97800.25
2023-01-31T09:27:33.770Z,97795.91
2023-01-31T09:30:01.068Z,97788.13
2023-01-31T09:32:30.786Z,97789.09
2023-01-31T09:34:58.431Z,97791.50
2023-01-31T09:37:25.547Z,97788.13
2023-01-31T09:39:52.609Z,97787.38
2023-01-31T09:42:31.927Z,97792.50
2023-01-31T09:45:07.975Z,97804.56
2023-01-31T09:47:39.378Z,97774.41
2023-01-31T09:50:12.766Z,97769.22
2023-01-31T09:52:39.821Z,97804.75
2023-01-31T09:55:15.159Z,97777.03
2023-01-31T09:57:59.591Z,97809.13
2023-01-31T10:00:33.857Z,97816.03
2023-01-31T10:03:18.583Z,97806.53
2023-01-31T10:06:08.646Z,97793.47
2023-01-31T10:09:17.149Z,97802.34
2023-01-31T10:11:49.455Z,97757.22
2023-01-31T10:14:52.292Z,97800.47
2023-01-31T10:17:36.564Z,97773.81
2023-01-31T10:20:36.048Z,97811.00
2023-01-31T10:23:16.026Z,97791.94
2023-01-31T10:26:02.188Z,97812.69
2023-01-31T10:28:43.217Z,97817.03
2023-01-31T10:31:22.402Z,97811.94
2023-01-31T10:33:54.115Z,97813.63
2023-01-31T10:36:33.890Z,97824.03
2023-01-31T10:39:13.164Z,97814.53
2023-01-31T10:41:58.670Z,97824.88
2023-01-31T10:44:42.403Z,97816.19
2023-01-31T10:47:13.837Z,97825.75
2023-01-31T10:49:45.080Z,97816.22
2023-01-31T10:52:39.841Z,97831.81
2023-01-31T10:55:15.637Z,97829.19
2023-01-31T10:57:43.261Z,97824.81
2023-01-31T11:00:22.731Z,97824.81
2023-01-31T11:02:50.153Z,97830.03
2023-01-31T11:05:21.208Z,97815.41
2023-01-31T11:07:48.841Z,97828.28
2023-01-31T11:10:25.588Z,97810.19
2023-01-31T11:12:57.724Z,97830.16
2023-01-31T11:15:28.733Z,97807.56
2023-01-31T11:18:01.181Z,97831.09
2023-01-31T11:20:31.691Z,97786.88
2023-01-31T11:23:01.830Z,97826.78
2023-01-31T11:25:31.249Z,97824.19
2023-01-31T11:28:01.848Z,97834.56
2023-01-31T11:30:33.053Z,97811.25
2023-01-31T11:33:00.217Z,97836.31
2023-01-31T11:35:30.242Z,97837.19
2023-01-31T11:38:01.220Z,97825.97
2023-01-31T11:40:30.578Z,97816.53
2023-01-31T11:43:14.079Z,97839.78
2023-01-31T11:45:45.587Z,97845.75
2023-01-31T11:48:13.296Z,97837.97
2023-01-31T11:50:44.561Z,97831.88
2023-01-31T11:53:20.763Z,97836.31
2023-01-31T11:55:51.377Z,97849.25
2023-01-31T11:58:23.878Z,97864.75
2023-01-31T12:00:57.559Z,97861.25
2023-01-31T12:03:25.929Z,97860.44
2023-01-31T12:06:02.278Z,97856.16
2023-01-31T12:08:35.931Z,97856.06
2023-01-31T12:11:27.410Z,97757.97
2023-01-31T12:14:01.170Z,97858.66
2023-01-31T12:16:30.795Z,97846.38
2023-01-31T12:19:18.670Z,97865.56
2023-01-31T12:22:05.774Z,97860.41
2023-01-31T12:25:18.996Z,97879.38
2023-01-31T12:28:13.782Z,97861.31
2023-01-31T12:31:22.440Z,97852.66
2023-01-31T12:33:55.443Z,97862.19
2023-01-31T12:36:33.333Z,97862.03
2023-01-31T12:39:14.193Z,97858.66
2023-01-31T12:42:02.987Z,97821.19
2023-01-31T12:45:02.334Z,97860.41
2023-01-31T12:47:37.028Z,97873.31
2023-01-31T12:50:35.742Z,97876.78
2023-01-31T12:53:08.757Z,97880.19
2023-01-31T12:56:12.291Z,97874.84
2023-01-31T12:58:46.397Z,97834.00
2023-01-31T13:01:21.155Z,97875.75
2023-01-31T13:03:58.242Z,97825.38
2023-01-31T13:06:57.960Z,97891.47
2023-01-31T13:09:31.507Z,97890.53
2023-01-31T13:12:21.588Z,97851.47
2023-01-31T13:15:17.830Z,97846.13
2023-01-31T13:17:46.746Z,97899.06
2023-01-31T13:20:36.001Z,97904.38
2023-01-31T13:23:09.679Z,97860.13
2023-01-31T13:25:44.955Z,97860.13
2023-01-31T13:28:36.242Z,97898.34
2023-01-31T13:31:12.084Z,97899.97
2023-01-31T13:33:51.278Z,97899.88
2023-01-31T13:36:21.046Z,97895.72
2023-01-31T13:38:49.442Z,97886.88
2023-01-31T13:41:37.184Z,97880.16
2023-01-31T13:44:04.437Z,97866.25
2023-01-31T13:46:42.807Z,97862.75
2023-01-31T13:49:28.729Z,97883.53
2023-01-31T13:52:02.411Z,97858.34
2023-01-31T13:54:40.094Z,97899.09
2023-01-31T13:57:08.056Z,97858.25
2023-01-31T13:59:40.740Z,97845.31
2023-01-31T14:02:18.675Z,97840.09
2023-01-31T14:04:47.753Z,97893.84
2023-01-31T14:07:18.381Z,97864.06
2023-01-31T14:10:05.326Z,97926.59
2023-01-31T14:12:37.751Z,97912.69
2023-01-31T14:15:46.817Z,97925.75
2023-01-31T14:18:43.730Z,97876.13
2023-01-31T14:21:29.208Z,97936.09
2023-01-31T14:23:58.271Z,97958.53
2023-01-31T14:26:52.657Z,97966.25
2023-01-31T14:29:26.062Z,97943.84
2023-01-31T14:31:56.780Z,97922.19
2023-01-31T14:34:26.646Z,97961.97
2023-01-31T14:37:09.227Z,97964.53
2023-01-31T14:39:55.283Z,97945.63
2023-01-31T14:42:37.252Z,97958.56
2023-01-31T14:45:33.030Z,97958.56
2023-01-31T14:48:20.493Z,97956.84
2023-01-31T14:51:10.441Z,97930.69
2023-01-31T14:53:59.058Z,97961.13
2023-01-31T14:56:45.331Z,97967.13
2023-01-31T14:59:32.289Z,97951.66
2023-01-31T15:02:01.481Z,97950.69
2023-01-31T15:04:29.174Z,97934.97
2023-01-31T15:06:57.657Z,97957.63
2023-01-31T15:09:24.864Z,97959.50
2023-01-31T15:11:56.700Z,97966.34
2023-01-31T15:14:45.136Z,97916.81
2023-01-31T15:17:32.982Z,97965.50
2023-01-31T15:20:11.335Z,97981.84
2023-01-31T15:22:41.579Z,97968.03
2023-01-31T15:25:32.666Z,97971.56
2023-01-31T15:28:01.128Z,97926.16
2023-01-31T15:30:34.206Z,97987.00
2023-01-31T15:33:15.493Z,97982.69
2023-01-31T15:35:59.824Z,97973.06
2023-01-31T15:38:50.030Z,97942.59
2023-01-31T15:41:26.536Z,97996.47
2023-01-31T15:43:56.951Z,97981.72
2023-01-31T15:46:28.677Z,97995.59
2023-01-31T15:48:55.854Z,97996.38
2023-01-31T15:51:23.132Z,97970.38
2023-01-31T15:54:06.235Z,97948.66
2023-01-31T15:56:39.237Z,97990.41
2023-01-31T15:59:14.097Z,97997.19
2023-01-31T16:01:48.772Z,97986.03
2023-01-31T16:04:15.814Z,97993.66
2023-01-31T16:06:42.971Z,97988.47
2023-01-31T16:09:30.788Z,97956.34
2023-01-31T16:12:02.365Z,98000.56
2023-01-31T16:14:30.282Z,98000.50
2023-01-31T16:16:59.110Z,98038.50
2023-01-31T16:19:30.410Z,98019.56
2023-01-31T16:21:58.534Z,98014.44
2023-01-31T16:24:26.173Z,98007.41
2023-01-31T16:27:00.127Z,98012.72
2023-01-31T16:29:50.140Z,98038.50
2023-01-31T16:32:20.127Z,98020.47
2023-01-31T16:34:59.804Z,98006.34
2023-01-31T16:37:39.451Z,98026.53
2023-01-31T16:40:22.746Z,98015.31
2023-01-31T16:42:50.089Z,97988.19
2023-01-31T16:45:32.908Z,98014.47
2023-01-31T16:48:23.459Z,98021.41
2023-01-31T16:50:53.255Z,98044.66
2023-01-31T16:53:25.899Z,97929.81
2023-01-31T16:56:14.538Z,98041.22
2023-01-31T16:58:55.496Z,97956.81
2023-01-31T17:01:59.168Z,98038.59
2023-01-31T17:11:00.584Z,97878.34
2023-01-31T17:13:35.441Z,97982.00
2023-01-31T17:16:03.507Z,97935.81
2023-01-31T17:18:34.063Z,97927.91
2023-01-31T17:21:01.222Z,97993.06
2023-01-31T17:23:28.289Z,98039.16
2023-01-31T17:25:55.334Z,98027.78
2023-01-31T17:28:22.332Z,98032.22
2023-01-31T17:30:49.442Z,98007.75
2023-01-31T17:33:16.528Z,98046.94
2023-01-31T17:35:47.276Z,98041.75
2023-01-31T17:38:14.265Z,98040.03
2023-01-31T17:40:43.043Z,98013.88
2023-01-31T17:43:20.814Z,98046.94
2023-01-31T17:45:47.956Z,98047.06
2023-01-31T17:48:25.738Z,98045.34
2023-01-31T17:50:53.801Z,98049.66
2023-01-31T17:53:21.038Z,98032.41
2023-01-31T17:55:49.497Z,98038.56
2023-01-31T17:58:19.966Z,98034.13
2023-01-31T18:00:47.177Z,98035.84
2023-01-31T18:03:19.492Z,98022.84
2023-01-31T18:05:47.290Z,98048.91
2023-01-31T18:08:15.239Z,98049.78
2023-01-31T18:10:43.005Z,98043.69
2023-01-31T18:13:10.548Z,98067.97
2023-01-31T18:15:40.140Z,98056.75
2023-01-31T18:18:08.920Z,98048.78
2023-01-31T18:20:39.768Z,98060.19
2023-01-31T18:23:08.137Z,98061.00
2023-01-31T18:25:35.077Z,98067.81
2023-01-31T18:28:02.005Z,98058.81
2023-01-31T18:30:30.099Z,98056.31
2023-01-31T18:32:58.602Z,98019.00
2023-01-31T18:35:26.561Z,98026.88
2023-01-31T18:37:55.554Z,98038.13
2023-01-31T18:40:23.105Z,98039.91
2023-01-31T18:42:50.513Z,98035.50
2023-01-31T18:45:17.606Z,98057.22
2023-01-31T18:47:44.682Z,98033.84
2023-01-31T18:50:11.920Z,98050.38
2023-01-31T18:52:42.259Z,98045.25
2023-01-31T18:55:09.714Z,98059.06
2023-01-31T18:57:36.841Z,98061.66
2023-01-31T19:00:05.027Z,98057.34
2023-01-31T19:02:32.080Z,98063.25
2023-01-31T19:04:59.433Z,98050.19
2023-01-31T19:07:26.500Z,98055.44
2023-01-31T19:09:53.598Z,98069.50
2023-01-31T19:12:20.709Z,98073.81
2023-01-31T19:14:48.346Z,98072.03
2023-01-31T19:17:16.043Z,98064.38
2023-01-31T19:19:43.009Z,98065.25
2023-01-31T19:22:10.026Z,98067.84
2023-01-31T19:24:36.995Z,98085.97
2023-01-31T19:27:03.999Z,98075.56
2023-01-31T19:29:31.035Z,98079.97
2023-01-31T19:31:58.160Z,98079.88
2023-01-31T19:34:25.260Z,98098.06
2023-01-31T19:36:52.370Z,98079.00
2023-01-31T19:39:19.445Z,98089.44
2023-01-31T19:41:46.819Z,98071.03
2023-01-31T19:44:13.902Z,98074.66
2023-01-31T19:46:41.041Z,98049.28
2023-01-31T19:49:08.357Z,98067.69
2023-01-31T19:51:35.694Z,98093.81
2023-01-31T19:54:03.244Z,98106.72
2023-01-31T19:56:31.662Z,98076.34
2023-01-31T19:58:59.874Z,98098.13
2023-01-31T20:01:26.986Z,98081.66
2023-01-31T20:03:55.175Z,98062.44
2023-01-31T20:06:25.885Z,98106.78
2023-01-31T20:08:59.116Z,98097.28
2023-01-31T20:11:28.353Z,98095.44
2023-01-31T20:13:58.060Z,98099.91
2023-01-31T20:16:25.398Z,98062.44
2023-01-31T20:18:54.833Z,98097.22
2023-01-31T20:21:23.124Z,98094.50
2023-01-31T20:23:50.265Z,98089.44
2023-01-31T20:26:19.581Z,98111.97
2023-01-31T20:28:46.808Z,98099.00
2023-01-31T20:31:15.695Z,98090.31
2023-01-31T20:33:43.136Z,98107.72
2023-01-31T20:36:11.114Z,98114.63
2023-01-31T20:38:39.141Z,98090.16
2023-01-31T20:41:08.611Z,98118.00
2023-01-31T20:43:37.066Z,98090.22
2023-01-31T20:46:04.133Z,98111.97
2023-01-31T20:48:31.405Z,98124.78
2023-01-31T20:50:58.901Z,98062.34
2023-01-31T20:53:32.046Z,98118.03
2023-01-31T20:56:02.115Z,98102.47
2023-01-31T20:58:32.299Z,98088.50
2023-01-31T21:01:00.277Z,98098.94
2023-01-31T21:03:28.453Z,98104.22
2023-01-31T21:05:59.693Z,98076.97
2023-01-31T21:08:27.695Z,98104.22
2023-01-31T21:10:57.258Z,98054.50
2023-01-31T21:13:26.753Z,98100.69
2023-01-31T21:15:56.427Z,98085.06
2023-01-31T21:18:26.377Z,98102.38
2023-01-31T21:20:54.119Z,98121.59
2023-01-31T21:23:21.178Z,98123.31
2023-01-31T21:25:48.280Z,98108.59
2023-01-31T21:28:15.484Z,98099.94
2023-01-31T21:30:42.748Z,98084.16
2023-01-31T21:33:09.927Z,98118.94
2023-01-31T21:35:37.062Z,98108.41
2023-01-31T21:38:05.450Z,98095.50
2023-01-31T21:40:32.476Z,98126.78
2023-01-31T21:42:59.433Z,98116.25
2023-01-31T21:45:41.766Z,98138.84
2023-01-31T21:48:29.425Z,98137.19
2023-01-31T21:50:57.604Z,98134.50
2023-01-31T21:53:27.458Z,98138.84
2023-01-31T21:56:21.504Z,98129.47
2023-01-31T21:58:48.771Z,98139.72
2023-01-31T22:01:25.037Z,98119.69
2023-01-31T22:03:53.895Z,98086.56
2023-01-31T22:06:25.815Z,98147.47
2023-01-31T22:08:55.537Z,98104.97
2023-01-31T22:11:23.238Z,98144.09
2023-01-31T22:13:54.807Z,98151.78
2023-01-31T22:16:23.064Z,98138.84
2023-01-31T22:18:50.347Z,98091.09
2023-01-31T22:21:26.546Z,98140.72
2023-01-31T22:23:55.850Z,98152.72
2023-01-31T22:26:30.661Z,98127.69
2023-01-31T22:29:00.537Z,98130.28
2023-01-31T22:31:28.758Z,98129.38
2023-01-31T22:33:56.278Z,98137.19
2023-01-31T22:36:26.465Z,98116.38
2023-01-31T22:38:54.258Z,98120.69
2023-01-31T22:41:22.185Z,98138.94
2023-01-31T22:43:51.214Z,98131.06
2023-01-31T22:46:25.196Z,98137.19
2023-01-31T22:48:53.391Z,98104.88
2023-01-31T22:51:23.248Z,98140.63
2023-01-31T22:53:51.193Z,98098.84
2023-01-31T22:56:21.674Z,98141.50
2023-01-31T22:58:49.335Z,98125.56
2023-01-31T23:01:22.203Z,98086.53
2023-01-31T23:03:49.963Z,98111.00
2023-01-31T23:06:18.408Z,98133.53
2023-01-31T23:08:45.601Z,98158.75
2023-01-31T23:11:15.275Z,98136.06
2023-01-31T23:13:43.172Z,98152.72
2023-01-31T23:16:16.841Z,98129.09
2023-01-31T23:18:43.966Z,98119.56
2023-01-31T23:21:18.908Z,98149.38
2023-01-31T23:23:46.445Z,98155.41
2023-01-31T23:26:14.076Z,98118.72
2023-01-31T23:28:41.275Z,98164.91
2023-01-31T23:31:08.533Z,98157.09
2023-01-31T23:33:35.683Z,98151.88
2023-01-31T23:36:02.904Z,98171.84
2023-01-31T23:38:29.998Z,98157.06
2023-01-31T23:40:57.113Z,98119.47
2023-01-31T23:43:24.353Z,98161.50
2023-01-31T23:45:51.368Z,98119.63
2023-01-31T23:48:18.629Z,98152.81
2023-01-31T23:50:45.723Z,98138.72
2023-01-31T23:53:12.924Z,98163.25
2023-01-31T23:55:40.044Z,98154.44
2023-01-31T23:58:07.253Z,98154.63
